createdAt,value
2022-07-28T00:00:23.256Z,20.27
2022-07-28T00:15:23.513Z,19.85
2022-07-28T00:30:23.581Z,19.40
2022-07-28T00:45:23.273Z,19.80
2022-07-28T01:00:23.520Z,19.25
2022-07-28T01:15:23.548Z,19.17
2022-07-28T01:30:27.678Z,18.85
2022-07-28T01:45:23.434Z,18.45
2022-07-28T02:00:23.457Z,18.35
2022-07-28T02:15:23.514Z,18.15
2022-07-28T02:30:23.667Z,17.98
2022-07-28T02:45:23.500Z,17.98
2022-07-28T03:00:23.489Z,17.52
2022-07-28T03:15:23.605Z,17.22
2022-07-28T03:30:24.140Z,17.00
2022-07-28T03:45:23.740Z,16.83
2022-07-28T04:00:26.097Z,16.90
2022-07-28T04:15:24.293Z,16.97
2022-07-28T04:30:23.957Z,16.57
2022-07-28T04:45:24.099Z,16.35
2022-07-28T05:00:24.789Z,16.15
2022-07-28T05:15:23.908Z,16.25
2022-07-28T05:30:23.867Z,16.12
2022-07-28T05:45:24.394Z,16.42
2022-07-28T06:00:24.228Z,16.67
2022-07-28T06:15:23.749Z,17.77
2022-07-28T06:30:23.844Z,19.27
2022-07-28T06:45:23.853Z,21.38
2022-07-28T07:00:24.411Z,23.05
2022-07-28T07:15:24.018Z,23.80
2022-07-28T07:30:23.839Z,24.88
2022-07-28T07:45:23.936Z,25.85
2022-07-28T08:00:28.547Z,25.98
2022-07-28T08:15:24.046Z,27.50
2022-07-28T08:30:27.534Z,25.43
2022-07-28T08:45:24.244Z,25.10
2022-07-28T09:00:24.051Z,24.52
2022-07-28T09:15:24.042Z,24.30
2022-07-28T09:30:33.275Z,24.62
2022-07-28T09:45:33.289Z,24.70
2022-07-28T10:00:33.465Z,25.23
2022-07-28T10:15:31.137Z,25.50
2022-07-28T10:30:23.146Z,25.80
2022-07-28T10:45:26.506Z,25.67
2022-07-28T11:00:26.552Z,25.70
2022-07-28T11:15:23.229Z,26.42
2022-07-28T11:30:23.372Z,26.20
2022-07-28T11:45:23.326Z,27.25
2022-07-28T12:00:23.218Z,27.60
2022-07-28T12:15:23.393Z,27.93
2022-07-28T12:30:24.076Z,27.85
2022-07-28T12:45:23.479Z,27.92
2022-07-28T13:00:23.676Z,28.38
2022-07-28T13:15:23.336Z,28.85
2022-07-28T13:30:23.653Z,28.90
2022-07-28T13:45:23.417Z,29.25
2022-07-28T14:00:23.474Z,29.20
2022-07-28T14:15:23.557Z,29.52
2022-07-28T14:30:23.504Z,29.63
2022-07-28T14:45:23.465Z,30.30
2022-07-28T15:00:23.550Z,30.00
2022-07-28T15:15:23.601Z,30.05
2022-07-28T15:30:23.659Z,29.75
2022-07-28T15:45:23.560Z,29.65
2022-07-28T16:00:23.627Z,29.62
2022-07-28T16:15:23.657Z,29.90
2022-07-28T16:30:23.640Z,29.55
2022-07-28T16:45:23.629Z,29.20
2022-07-28T17:00:23.608Z,29.10
2022-07-28T17:15:23.724Z,29.27
2022-07-28T17:30:23.783Z,29.12
2022-07-28T17:45:24.209Z,28.52
2022-07-28T18:00:24.014Z,28.13
2022-07-28T18:15:24.986Z,27.75
2022-07-28T18:30:23.869Z,27.42
2022-07-28T18:45:23.803Z,27.30
2022-07-28T19:00:23.824Z,26.85
2022-07-28T19:15:24.147Z,26.65
2022-07-28T19:30:24.074Z,23.05
2022-07-28T19:45:24.040Z,21.88
2022-07-28T20:00:24.176Z,21.75
2022-07-28T20:15:24.037Z,21.85
2022-07-28T20:30:24.078Z,21.65
2022-07-28T20:45:24.214Z,21.30
2022-07-28T21:00:32.994Z,21.77
2022-07-28T21:15:23.252Z,21.60
2022-07-28T21:30:27.660Z,21.50
2022-07-28T21:45:23.240Z,21.45
2022-07-28T22:00:35.032Z,22.00
2022-07-28T22:15:23.301Z,21.35
2022-07-28T22:30:23.330Z,21.27
2022-07-28T22:45:51.085Z,21.25
2022-07-28T23:00:23.440Z,20.95
2022-07-28T23:15:23.478Z,21.05
2022-07-28T23:30:23.504Z,20.95
2022-07-28T23:45:23.513Z,20.70
